CheckWX is a tool to help pilots better visualize weather data.  It is not intended as a substitute for an official pre-flight weather briefing.

07:44:56 UTC

KLVK TAF
Livermore Municipal Airport
Livermore, California, USA
KLVK 281126Z 2812/2912 29008KT P6SM SKC FM282100 28012KT P6SM SKC FM290300 30008KT P6SM SKC FM290800 VRB03KT P6SM FEW008

May-28@
12:00 UTC

May-28 @ 12:00 UTC

May-28@
21:00 UTC

May-28 @ 21:00 UTC

TAF KLVK 281126Z 2812/2912 29008KT P6SM SKC

Expired

Wind
  • 290° at 8 KTS
Cloud Levels
  • Clear skies

May-28@
21:00 UTC

May-28 @ 21:00 UTC

May-29@
03:00 UTC

May-29 @ 03:00 UTC

FM282100 28012KT P6SM SKC

Expired

Wind
  • 280° at 12 KTS
Cloud Levels
  • Clear skies

May-29@
03:00 UTC

May-29 @ 03:00 UTC

May-29@
08:00 UTC

May-29 @ 08:00 UTC

FM290300 30008KT P6SM SKC

From

From Standard forecast or significant change

Wind
  • 300° at 8 KTS
Cloud Levels
  • Clear skies

May-29@
08:00 UTC

May-29 @ 08:00 UTC

May-29@
12:00 UTC

May-29 @ 12:00 UTC

FM290800 VRB03KT P6SM FEW008

From

From Standard forecast or significant change

Wind
  • Variable at 3 KTS
Cloud Levels
  • Few at 800' AGL